ADDS METAR Data INFO
IDs: Format: Raw Decoded Include TAF

Data at: 0751 UTC 17 Oct 2017

PARY 170656Z AUTO 24005KT 10SM OVC039 M01/M03 A2959 RMK AO2 SLP049 T10061033 FZRANO
PARY 170556Z AUTO 25004KT 10SM OVC039 00/M02 A2960 RMK AO2 SLP051 T00001017 10006 21006 57005 FZRANO
PARY 170456Z AUTO 26003KT 10SM OVC039 00/M01 A2960 RMK AO2 SLP053 T00001011 FZRANO
PARY 170356Z AUTO 24003KT 10SM SCT013 OVC041 00/M01 A2961 RMK AO2 SLP054 T00001006 FZRANO
PARY 170256Z AUTO 00000KT 10SM FEW004 OVC043 00/M01 A2961 RMK AO2 SLP056 T00001006 56006 FZRANO
PARY 170156Z AUTO 00000KT 10SM FEW002 OVC045 01/M01 A2962 RMK AO2 SLP058 T00061006 FZRANO
PARY 170056Z AUTO 00000KT 10SM FEW003 OVC045 01/00 A2962 RMK AO2 SLP063 T00060000 FZRANO
PARY 162356Z AUTO 00000KT 10SM SCT003 OVC045 01/00 A2963 RMK AO2 SLP065 T00060000 10011 21017 58000 FZRANO
PARY 162347Z AUTO 00000KT 10SM BKN003 OVC045 01/00 A2963 RMK AO2 FZRANO
PARY 162334Z AUTO 00000KT 10SM FEW003 OVC047 01/00 A2963 RMK AO2 FZRANO
PARY 162256Z AUTO 00000KT 10SM BKN003 OVC046 01/00 A2963 RMK AO2 SLP065 T00060000 FZRANO
PARY 162245Z AUTO 29003KT 10SM BKN003 OVC046 01/00 A2963 RMK AO2 FZRANO
PARY 162232Z AUTO 00000KT 10SM SCT001 OVC046 01/00 A2963 RMK AO2 FZRANO
PARY 162211Z AUTO 00000KT 3SM BR BKN001 OVC046 00/M01 A2963 RMK AO2 FZRANO
PARY 162205Z AUTO 00000KT 1 3/4SM BR BKN001 OVC046 00/M01 A2963 RMK AO2 VIS 1 1/4V5 FZRANO
PARY 162156Z AUTO 00000KT 5SM BR BKN001 OVC046 00/M01 A2963 RMK AO2 SLP063 T00001006 FZRANO
PARY 162153Z AUTO 00000KT 7SM BKN001 OVC046 00/M01 A2963 RMK AO2 FZRANO
PARY 162143Z AUTO 00000KT 9SM SCT001 OVC046 00/M01 A2963 RMK AO2 FZRANO
PARY 162132Z AUTO 00000KT 4SM BR BKN001 OVC046 00/M01 A2963 RMK AO2 FZRANO
PARY 162128Z AUTO 00000KT 2 1/2SM BR SCT001 OVC046 00/M01 A2963 RMK AO2 VIS 1 1/4V5 FZRANO
PARY 162125Z AUTO 00000KT 1SM BR SCT001 OVC046 00/M01 A2963 RMK AO2 FZRANO
PARY 162120Z AUTO 00000KT 1/2SM FG FEW001 OVC046 00/M01 A2963 RMK AO2 FZRANO
PARY 162056Z AUTO 00000KT 1/4SM FG OVC046 00/M01 A2963 RMK AO2 SLP062 T00001006 53004 FZRANO
PARY 162013Z AUTO 00000KT 1/4SM FZFG SCT001 OVC046 M01/M01 A2963 RMK AO2 FZRANO
PARY 162008Z AUTO 00000KT 3/4SM BR FEW001 OVC046 M01/M01 A2963 RMK AO2 VIS 1/4V3 FZRANO
PARY 162005Z AUTO 00000KT 1 1/4SM BR FEW001 OVC046 M01/M01 A2963 RMK AO2 VIS 3/4V3 FZRANO
PARY 161956Z AUTO 00000KT 3/4SM BR FEW001 OVC046 M01/M01 A2963 RMK AO2 SLP061 T10061011 FZRANO
PARY 161942Z AUTO 00000KT 3/4SM BR FEW001 OVC044 M01/M01 A2963 RMK AO2 FZRANO
PARY 161928Z AUTO 00000KT 1 1/4SM BR FEW001 OVC044 M01/M02 A2963 RMK AO2 FZRANO
PARY 161923Z AUTO 00000KT 1 3/4SM BR OVC044 M01/M02 A2963 RMK AO2 FZRANO
PARY 161903Z AUTO 00000KT 3SM BR OVC044 M01/M02 A2962 RMK AO2 FZRANO
PARY 161900Z AUTO 00000KT 1SM BR OVC044 M01/M02 A2962 RMK AO2 FZRANO
PARY 161856Z AUTO 00000KT 1/2SM FZFG OVC044 M01/M02 A2962 RMK AO2 SLP060 T10111017 FZRANO
PARY 161821Z AUTO 07003KT 1/4SM FZFG OVC042 M01/M02 A2962 RMK AO2 FZRANO
PARY 161801Z AUTO 07003KT 1/2SM FZFG SCT003 OVC044 M02/M02 A2962 RMK AO2 FZRANO
PARY 161759Z AUTO 07004KT 1SM BR SCT003 OVC044 M02/M02 A2962 RMK AO2 FZRANO
PARY 161756Z AUTO 07004KT 3SM BR SCT003 OVC044 M02/M02 A2962 RMK AO2 SLP059 T10171022 10000 21017 51001 FZRANO
PARY 161732Z AUTO 07003KT 5SM BR OVC003 M01/M02 A2962 RMK AO2 FZRANO
PARY 161717Z AUTO 07004KT 1 1/4SM BR OVC003 M01/M02 A2962 RMK AO2 VIS 1/2V5 FZRANO
PARY 161706Z AUTO 08004KT 3/4SM BR OVC003 M01/M02 A2962 RMK AO2 FZRANO
PARY 161656Z AUTO 08005KT 1/4SM FZFG OVC003 M01/M02 A2962 RMK AO2 SLP059 T10111017 FZRANO
PARY 161556Z AUTO 07004KT 1/4SM FZFG OVC003 M01/M01 A2962 RMK AO2 SLP058 T10061011 FZRANO
PARY 161456Z AUTO 07003KT 1/4SM FZFG OVC003 M01/M01 A2962 RMK AO2 SLP060 T10061011 51003 FZRANO
PARY 161356Z AUTO 06004KT 1/4SM FZFG OVC003 M01/M01 A2962 RMK AO2 SLP060 T10061011 FZRANO
PARY 161256Z AUTO 06003KT 1/4SM FG OVC003 00/M01 A2961 RMK AO2 SLP058 T00001006 FZRANO
PARY 161233Z AUTO 04003KT 1/4SM FG BKN003 OVC044 00/M01 A2961 RMK AO2 FZRANO
PARY 161226Z AUTO 00000KT 3/4SM BR BKN003 OVC044 00/M01 A2961 RMK AO2 FZRANO
PARY 161220Z AUTO 00000KT 1 3/4SM BR SCT003 OVC044 00/M01 A2961 RMK AO2 FZRANO
PARY 161214Z AUTO 00000KT 7SM SCT003 OVC044 00/M01 A2961 RMK AO2 FZRANO
PARY 161156Z AUTO 00000KT 10SM OVC044 00/M01 A2961 RMK AO2 SLP057 T00001006 10006 21006 51002 FZRANO
PARY 161133Z AUTO 00000KT 10SM FEW001 OVC044 M01/M01 A2961 RMK AO2 FZRANO
PARY 161121Z AUTO 00000KT 3SM BR OVC044 M01/M01 A2961 RMK AO2 FZRANO
PARY 161111Z AUTO 00000KT 1 3/4SM BR OVC044 M01/M01 A2961 RMK AO2 VIS 1V5 FZRANO
PARY 161056Z AUTO 00000KT 10SM OVC046 00/M01 A2961 RMK AO2 SLP057 T00001006 FZRANO
PARY 161043Z AUTO 00000KT 3SM BR OVC046 00/M01 A2961 RMK AO2 FZRANO
PARY 161035Z AUTO 00000KT 1 3/4SM BR OVC046 00/M01 A2961 RMK AO2 FZRANO
PARY 161011Z AUTO 08003KT 3SM BR FEW003 OVC046 00/M01 A2961 RMK AO2 FZRANO
PARY 160956Z AUTO 08003KT 2 1/2SM BR FEW003 OVC046 00/M01 A2961 RMK AO2 VIS 1 1/4V5 SLP057 T00001006 FZRANO
PARY 160936Z AUTO 06003KT 3SM BR SCT001 OVC046 00/M01 A2961 RMK AO2 FZRANO
PARY 160929Z AUTO 04003KT 1 1/2SM BR SCT001 OVC046 00/M01 A2960 RMK AO2 VIS 1V3 FZRANO
PARY 160924Z AUTO 04003KT 2 1/2SM BR BKN001 OVC046 00/M01 A2960 RMK AO2 FZRANO
PARY 160914Z AUTO 01003KT 3SM BR SCT001 OVC046 00/M01 A2960 RMK AO2 FZRANO
PARY 160906Z AUTO 00000KT 2SM BR SCT001 OVC046 00/M01 A2960 RMK AO2 VIS 1V5 FZRANO
PARY 160903Z AUTO 00000KT 1SM BR SCT001 OVC046 00/M01 A2960 RMK AO2 FZRANO
PARY 160856Z AUTO 00000KT 1/2SM FG SCT001 OVC046 00/M01 A2960 RMK AO2 SLP055 T00001006 53004 FZRANO
PARY 160849Z AUTO 00000KT 3/4SM BR SCT001 OVC046 00/M01 A2960 RMK AO2 FZRANO
PARY 160844Z AUTO 00000KT 1 3/4SM BR SCT001 OVC046 00/M01 A2960 RMK AO2 VIS 3/4V5 FZRANO
PARY 160838Z AUTO 00000KT 6SM BR FEW001 OVC046 00/M01 A2960 RMK AO2 FZRANO
PARY 160821Z AUTO 10003KT 3SM BR OVC046 00/M01 A2960 RMK AO2 FZRANO
PARY 160811Z AUTO 09004KT 1 1/2SM BR OVC046 00/M01 A2960 RMK AO2 FZRANO
PARY 160804Z AUTO 08004KT 1SM BR OVC048 00/M01 A2960 RMK AO2 FZRANO
PARY 160756Z AUTO 08004KT 1/2SM FG OVC048 00/M01 A2960 RMK AO2 SLP053 T00001006 400171006 FZRANO
PARY 160752Z AUTO 09004KT 1/2SM FG OVC048 00/M01 A2960 RMK AO2 400171006 FZRANO
PARY 160748Z AUTO 09003KT 1SM BR OVC048 00/M01 A2960 RMK AO2 FZRANO
PARY 160740Z AUTO 08004KT 2SM BR OVC048 00/M01 A2960 RMK AO2 FZRANO
PARY 160736Z AUTO 08004KT 1SM BR OVC048 00/M01 A2960 RMK AO2 FZRANO
PARY 160717Z AUTO 09003KT 1/2SM FG OVC048 00/M01 A2960 RMK AO2 FZRANO
PARY 160656Z AUTO 07003KT 3/4SM BR OVC048 00/M01 A2959 RMK AO2 SLP049 T00001006 FZRANO
PARY 160651Z AUTO 05003KT 1SM BR OVC048 00/M01 A2959 RMK AO2 FZRANO
PARY 160641Z AUTO 07003KT 2 1/2SM BR OVC048 00/M01 A2959 RMK AO2 FZRANO
PARY 160637Z AUTO 06003KT 1SM BR OVC048 00/M01 A2959 RMK AO2 FZRANO
PARY 160632Z AUTO 04003KT 1/2SM FG OVC048 00/M01 A2959 RMK AO2 FZRANO
PARY 160623Z AUTO 07003KT 3/4SM BR OVC048 00/M01 A2959 RMK AO2 FZRANO
PARY 160619Z AUTO 00000KT 1 1/2SM BR OVC048 00/M01 A2959 RMK AO2 FZRANO
PARY 160556Z AUTO 00000KT 10SM OVC048 00/M01 A2959 RMK AO2 SLP048 T00001006 10017 20000 53003 FZRANO
PARY 160456Z AUTO 00000KT 10SM OVC048 01/M01 A2958 RMK AO2 SLP048 T00061006 FZRANO
PARY 160356Z AUTO 00000KT 10SM OVC048 01/00 A2958 RMK AO2 SLP048 T00060000 FZRANO
PARY 160256Z AUTO 00000KT 10SM OVC048 01/00 A2958 RMK AO2 SLP048 T00110000 56002 FZRANO
PARY 160156Z AUTO 00000KT 10SM OVC050 01/00 A2958 RMK AO2 SLP048 T00110000 FZRANO
PARY 160056Z AUTO 08003KT 10SM OVC050 02/00 A2958 RMK AO2 SLP047 T00170000 FZRANO
PARY 160022Z AUTO 00000KT 10SM SCT005 OVC050 02/01 A2958 RMK AO2 FZRANO
PARY 152356Z AUTO 00000KT 10SM OVC005 02/01 A2959 RMK AO2 CIG 003V007 SLP049 T00170006 10017 21006 58004 FZRANO
PARY 152256Z AUTO 03003KT 10SM OVC005 02/01 A2960 RMK AO2 SLP052 T00170006 FZRANO
PARY 152233Z AUTO 00000KT 10SM OVC005 02/01 A2960 RMK AO2 CIG 002V007 FZRANO
PARY 152156Z AUTO 00000KT 10SM OVC003 01/01 A2960 RMK AO2 SLP053 T00110006 FZRANO
PARY 152109Z AUTO 07003KT 3SM BR OVC003 01/00 A2960 RMK AO2 FZRANO
PARY 152107Z AUTO 00000KT 1 1/2SM BR OVC003 01/00 A2960 RMK AO2 FZRANO
PARY 152103Z AUTO 08003KT 3/4SM BR OVC003 01/00 A2960 RMK AO2 FZRANO
PARY 152051Z AUTO 09003KT 1/4SM FG OVC003 01/00 A2960 RMK AO2 FZRANO
PARY 152020Z AUTO 00000KT 1/2SM FG BKN003 OVC050 01/00 A2960 RMK AO2 VIS 1/4V1 1/4 FZRANO
PARY 151956Z AUTO 06003KT 1/4SM FG FEW002 OVC050 01/M01 A2960 RMK AO2 SLP053 T00061006 FZRANO